Lake Worth, FL

6:08 PM EDT en Octubre 31, 2014 (GMT -0400)
D A N E T S | Change Station
CLOSE
Current Station
Estación meteorológica personal
Location: Lake Worth, FL
Altura: 25 ft
Estaciones meteorológicas cercanas

Alt 25 ft 26.61 °N, 80.17 °W | Updated 3 minutes ago

Muy nublado
Muy nublado
79.1 ° F
Sensación térmica 81 ° F
N
3.0
Viento Variable Viento desde ONO
Gusts 6.0 mph

Hoy
Alta -- | Baja -- ° F
--% Posibilidad de precipitaciones
Ayer
Alta -- | Baja -- ° F
Precip. -- pul
7:29 AM 6:38 PM
Cuarto creciente, 59% visible
Presión 29.77 pul
Visibilidad 10.0 Millas
Nubes Baja 3900 ft
Nubes dispersas 12000 ft
Muy nublado 20000 ft
Índice de calor 81 ° F
Punto de rocío 66 ° F
Humedad 64%
Precipitaciones 0.00 pul
Espesor de la nieve No disponible.
UV 0.0 de una escala de 12
Polen 3.70 de una escala de 12
Calidad del aire No disponible.
Flu Activity No disponible.
METAR KPBI 312153Z 29011KT 10SM FEW039 SCT120 BKN200 26/18 A2977 RMK AO2 SLP079 CB DSNT E-S T02610183

More Conditions Fewer Conditions

Presión 29.77 pul
Visibilidad 10.0 Millas
Nubes Baja 3900 ft
Nubes dispersas 12000 ft
Muy nublado 20000 ft
Índice de calor 81 ° F
Punto de rocío 66 ° F
Humedad 64%
Precipitaciones 0.00 pul
Espesor de la nieve No disponible.
UV 0.0 de una escala de 12
Polen 3.70 de una escala de 12
Calidad del aire No disponible.
Flu Activity No disponible.
METAR KPBI 312153Z 29011KT 10SM FEW039 SCT120 BKN200 26/18 A2977 RMK AO2 SLP079 CB DSNT E-S T02610183

More Conditions Fewer Conditions

10-Day Weather Forecast

Almanac

Astronomía

Oct. 31, 2014 Salida Puesta
Hora real
Crepúsculo civil
Crepúsculo náutico
Crepúsculo astronómico
Luna
Horas de luz
Horas de luz
Tomorrow will be .
, % of the Moon is Illuminated

Extremos de hoy

Máximos del estado Bajos del estado

Community

WunderPhotos

Upload Photos

1,766,751 ¡fotos cargadas!

WunderBlogs® & News

Nearby

Calidad del aire

  Calidad del aire Índice AQ Contaminante
Not available.

Grosos de nieve

Estación Profundido Altura

Actividad de terremotos

Ciudad Distance Mag. Tiempo y dato
Magnitud mínima muestra es 2,5.

Temperaturas de aguas costeras

Lugar Temperatura

Estaciones meteorológicas cercanas